Time;durP1;ratioP1;P1;durP2;ratioP2;P2;SDS_P1;SDS_P2;PMS_P1;PMS_P2;Temp;Humidity;BMP_temperature;BMP_pressure;BME280_temperature;BME280_humidity;BME280_pressure;Samples;Min_cycle;Max_cycle;Signal;HPM_P1;HPM_P2
2021/03/07 00:00:48;;;;;;;40.35;27.15;;;8.80;99.90;;;;;;5048214;28;20437;-60
2021/03/07 00:03:13;;;;;;;49.72;29.10;;;8.90;99.90;;;;;;5051101;28;20025;-61
2021/03/07 00:05:39;;;;;;;44.65;29.58;;;8.90;99.90;;;;;;5048437;28;20088;-60
2021/03/07 00:08:05;;;;;;;43.58;28.33;;;8.90;99.90;;;;;;5049651;28;20029;-60
2021/03/07 00:10:31;;;;;;;45.95;28.55;;;8.70;99.90;;;;;;5050073;28;20219;-60
2021/03/07 00:12:56;;;;;;;46.30;28.38;;;8.80;99.90;;;;;;5048487;28;20520;-61
2021/03/07 00:15:23;;;;;;;45.90;27.60;;;8.80;99.90;;;;;;5051812;28;20029;-60
2021/03/07 00:17:49;;;;;;;46.65;28.15;;;8.80;99.90;;;;;;5047820;28;20017;-60
2021/03/07 00:20:19;;;;;;;42.88;27.67;;;8.80;99.90;;;;;;5051687;28;20083;-60
2021/03/07 00:22:44;;;;;;;42.95;27.08;;;8.80;99.90;;;;;;5037651;28;20522;-60
2021/03/07 00:25:12;;;;;;;48.22;27.65;;;8.80;99.90;;;;;;5048061;28;20060;-61
2021/03/07 00:27:38;;;;;;;46.17;26.52;;;8.80;99.90;;;;;;5043295;28;20025;-60
2021/03/07 00:30:07;;;;;;;43.78;26.38;;;8.80;99.90;;;;;;5049099;28;20033;-60
2021/03/07 00:32:33;;;;;;;46.58;27.13;;;8.80;99.90;;;;;;5043121;28;20037;-60
2021/03/07 00:34:59;;;;;;;46.13;26.35;;;8.90;99.90;;;;;;5046562;28;20070;-60
2021/03/07 00:37:25;;;;;;;39.65;27.35;;;8.70;99.90;;;;;;5042676;28;20163;-61
2021/03/07 00:39:51;;;;;;;40.65;26.33;;;8.80;99.90;;;;;;5048507;28;20421;-63
2021/03/07 00:42:17;;;;;;;42.58;26.70;;;8.70;99.90;;;;;;5043434;28;20037;-61
2021/03/07 00:44:42;;;;;;;39.75;26.17;;;8.80;99.90;;;;;;5038064;28;21002;-62
2021/03/07 00:47:09;;;;;;;39.97;25.60;;;8.80;99.90;;;;;;5042625;28;20393;-62
2021/03/07 00:49:35;;;;;;;42.92;26.45;;;8.80;99.90;;;;;;5050373;28;20032;-60
2021/03/07 00:52:01;;;;;;;45.15;28.08;;;8.80;99.90;;;;;;5040883;28;20021;-60
2021/03/07 00:54:27;;;;;;;47.85;26.63;;;8.80;99.90;;;;;;5050514;28;20087;-62
2021/03/07 00:56:54;;;;;;;42.22;25.83;;;8.80;99.90;;;;;;5040786;28;20033;-60
2021/03/07 00:59:20;;;;;;;40.17;25.90;;;8.70;99.90;;;;;;5051184;28;20230;-62
2021/03/07 01:01:46;;;;;;;42.72;26.00;;;8.70;99.90;;;;;;5045457;28;20021;-60
2021/03/07 01:04:11;;;;;;;39.20;25.73;;;8.80;99.90;;;;;;5031495;28;20045;-61
2021/03/07 01:06:37;;;;;;;41.47;25.65;;;8.80;99.90;;;;;;5037831;28;20071;-61
2021/03/07 01:09:05;;;;;;;40.90;26.02;;;8.70;99.90;;;;;;5051364;28;20025;-60
2021/03/07 01:11:30;;;;;;;42.50;26.33;;;8.70;99.90;;;;;;5037457;28;20107;-60
2021/03/07 01:13:56;;;;;;;45.72;27.20;;;8.80;99.90;;;;;;5042628;28;20033;-61
2021/03/07 01:16:23;;;;;;;43.53;27.05;;;8.70;99.90;;;;;;5037161;28;20513;-60
2021/03/07 01:18:48;;;;;;;38.42;25.55;;;8.80;99.90;;;;;;5033092;28;20049;-61
2021/03/07 01:21:14;;;;;;;40.97;25.42;;;8.80;99.90;;;;;;5039891;28;20615;-60
2021/03/07 01:23:40;;;;;;;43.00;25.70;;;8.70;99.90;;;;;;5032739;28;20080;-60
2021/03/07 01:26:06;;;;;;;43.13;25.58;;;8.70;99.90;;;;;;5036603;28;20033;-61
2021/03/07 01:28:31;;;;;;;42.63;26.95;;;8.80;99.90;;;;;;5046227;28;20499;-61
2021/03/07 01:30:57;;;;;;;40.67;26.13;;;8.80;99.90;;;;;;5036538;28;20449;-60
2021/03/07 01:33:23;;;;;;;40.17;25.60;;;8.80;99.90;;;;;;5047526;28;20033;-60
2021/03/07 01:35:49;;;;;;;43.47;26.02;;;8.80;99.90;;;;;;5039161;28;20533;-60
2021/03/07 01:38:14;;;;;;;43.03;27.08;;;8.80;99.90;;;;;;5046064;28;20021;-62
2021/03/07 01:40:45;;;;;;;40.90;26.08;;;8.70;99.90;;;;;;5044784;28;20033;-60
2021/03/07 01:43:11;;;;;;;37.50;25.98;;;8.70;99.90;;;;;;5043177;28;20036;-60
2021/03/07 01:45:37;;;;;;;39.80;26.48;;;8.70;99.90;;;;;;5036426;28;20056;-60
2021/03/07 01:48:07;;;;;;;43.67;27.15;;;8.70;99.90;;;;;;5043087;28;20099;-63
2021/03/07 01:50:35;;;;;;;37.10;24.63;;;8.80;99.90;;;;;;5044549;28;20545;-60
2021/03/07 01:53:02;;;;;;;41.80;25.92;;;8.80;99.90;;;;;;5044194;28;20025;-60
2021/03/07 01:55:31;;;;;;;41.55;26.63;;;8.80;99.90;;;;;;5039971;28;20405;-60
2021/03/07 01:58:09;;;;;;;44.40;27.38;;;8.70;99.90;;;;;;5037876;28;20382;-60
2021/03/07 02:00:36;;;;;;;39.30;25.05;;;8.70;99.90;;;;;;5035405;28;20041;-61
2021/03/07 02:03:02;;;;;;;40.85;26.42;;;8.70;99.90;;;;;;5043955;28;20025;-63
2021/03/07 02:05:28;;;;;;;39.17;25.83;;;8.80;99.90;;;;;;5045110;28;20053;-60
2021/03/07 02:07:54;;;;;;;41.05;25.98;;;8.80;99.90;;;;;;5043240;28;20428;-60
2021/03/07 02:10:26;;;;;;;42.45;27.35;;;8.70;99.90;;;;;;5046783;28;20025;-60
2021/03/07 02:12:55;;;;;;;45.97;26.83;;;8.70;99.90;;;;;;5034384;28;20036;-60
2021/03/07 02:15:21;;;;;;;42.28;26.20;;;8.70;99.90;;;;;;5046474;28;20537;-64
2021/03/07 02:17:48;;;;;;;42.28;26.08;;;8.70;99.90;;;;;;5033350;28;20453;-61
2021/03/07 02:20:18;;;;;;;43.58;27.17;;;8.70;99.90;;;;;;5046387;28;20040;-60
2021/03/07 02:22:52;;;;;;;44.00;26.17;;;8.70;99.90;;;;;;5040984;28;20017;-61
2021/03/07 02:25:18;;;;;;;41.78;26.70;;;8.70;99.90;;;;;;5046636;28;20548;-60
2021/03/07 02:27:45;;;;;;;42.22;27.08;;;8.70;99.90;;;;;;5041123;28;20049;-60
2021/03/07 02:30:13;;;;;;;39.45;26.20;;;8.60;99.90;;;;;;5046198;28;20083;-62
2021/03/07 02:32:45;;;;;;;39.95;27.63;;;8.60;99.90;;;;;;5041230;28;20036;-63
2021/03/07 02:35:30;;;;;;;42.47;25.17;;;8.70;99.90;;;;;;5041076;28;20115;-60
2021/03/07 02:37:58;;;;;;;41.33;26.05;;;8.60;99.90;;;;;;5035144;28;20500;-63
2021/03/07 02:40:28;;;;;;;41.50;26.73;;;8.70;99.90;;;;;;5045690;28;20116;-60
2021/03/07 02:42:58;;;;;;;42.05;25.98;;;8.60;99.90;;;;;;5029366;28;20021;-62
2021/03/07 02:45:25;;;;;;;41.40;26.60;;;8.60;99.90;;;;;;5024454;28;20043;-61
2021/03/07 02:47:53;;;;;;;43.08;27.58;;;8.60;99.90;;;;;;5041353;28;20079;-60
2021/03/07 02:50:30;;;;;;;41.17;26.38;;;8.60;99.90;;;;;;5045341;28;20025;-60
2021/03/07 02:53:05;;;;;;;46.67;27.27;;;8.70;99.90;;;;;;5034674;28;20078;-63
2021/03/07 02:55:34;;;;;;;43.53;27.83;;;8.70;99.90;;;;;;5045267;28;20417;-61
2021/03/07 02:58:05;;;;;;;41.53;27.05;;;8.60;99.90;;;;;;5042655;28;20112;-60
2021/03/07 03:00:33;;;;;;;46.45;25.48;;;8.60;99.90;;;;;;5044546;28;20032;-59
2021/03/07 03:03:04;;;;;;;39.92;24.63;;;8.60;99.90;;;;;;5042542;28;20025;-61
2021/03/07 03:05:30;;;;;;;40.17;25.05;;;8.60;99.90;;;;;;5043920;28;20468;-61
2021/03/07 03:07:56;;;;;;;40.03;25.75;;;8.60;99.90;;;;;;5040800;28;20025;-61
2021/03/07 03:10:22;;;;;;;40.90;25.50;;;8.70;99.90;;;;;;5045798;28;20041;-60
2021/03/07 03:12:49;;;;;;;39.50;25.35;;;8.70;99.90;;;;;;5032082;28;20032;-60
2021/03/07 03:15:16;;;;;;;35.15;23.80;;;8.60;99.90;;;;;;5042622;28;20116;-60
2021/03/07 03:17:42;;;;;;;36.05;24.73;;;8.70;99.90;;;;;;5038614;28;20047;-61
2021/03/07 03:20:15;;;;;;;38.92;24.90;;;8.60;99.90;;;;;;5032645;28;20104;-62
2021/03/07 03:22:44;;;;;;;37.20;24.88;;;8.70;99.90;;;;;;5040283;28;20065;-60
2021/03/07 03:25:10;;;;;;;38.40;25.02;;;8.60;99.90;;;;;;5046015;28;20176;-61
2021/03/07 03:27:36;;;;;;;46.28;26.30;;;8.60;99.90;;;;;;5040406;28;20032;-60
2021/03/07 03:30:12;;;;;;;38.13;24.65;;;8.60;99.90;;;;;;5045731;28;20067;-60
2021/03/07 03:32:39;;;;;;;39.23;24.67;;;8.60;99.90;;;;;;5040440;28;20477;-60
2021/03/07 03:35:16;;;;;;;39.67;25.15;;;8.60;99.90;;;;;;5043072;28;20030;-62
2021/03/07 03:37:43;;;;;;;42.90;24.73;;;8.50;99.90;;;;;;5040338;28;20673;-60
2021/03/07 03:40:13;;;;;;;37.05;24.30;;;8.60;99.90;;;;;;5045695;28;20524;-60
2021/03/07 03:42:41;;;;;;;36.85;24.50;;;8.60;99.90;;;;;;5040461;28;20013;-59
2021/03/07 03:45:08;;;;;;;36.83;24.45;;;8.50;99.90;;;;;;5033787;28;20029;-61
2021/03/07 03:47:36;;;;;;;37.15;24.58;;;8.60;99.90;;;;;;5040474;28;20099;-63
2021/03/07 03:50:04;;;;;;;37.53;24.75;;;8.40;99.90;;;;;;5045614;28;20494;-59
2021/03/07 03:52:31;;;;;;;41.45;25.08;;;8.50;99.90;;;;;;5039220;28;20408;-60
2021/03/07 03:55:08;;;;;;;35.83;24.10;;;8.40;99.90;;;;;;5039661;28;20025;-62
2021/03/07 03:57:36;;;;;;;36.70;24.42;;;8.40;99.90;;;;;;5039870;28;20025;-60
2021/03/07 04:00:07;;;;;;;41.72;25.60;;;8.40;99.90;;;;;;5048465;28;20037;-62
2021/03/07 04:02:35;;;;;;;41.50;25.25;;;8.50;99.90;;;;;;5042219;28;20812;-60
2021/03/07 04:05:06;;;;;;;38.28;24.38;;;8.70;99.90;;;;;;5049210;28;20072;-59
2021/03/07 04:07:33;;;;;;;39.20;25.13;;;8.60;99.90;;;;;;5042906;28;20103;-60
2021/03/07 04:10:00;;;;;;;38.42;23.60;;;8.70;99.90;;;;;;5049038;28;20545;-61
2021/03/07 04:12:26;;;;;;;37.65;24.98;;;8.70;99.90;;;;;;5043676;28;20017;-63
2021/03/07 04:14:54;;;;;;;39.95;25.70;;;8.50;99.90;;;;;;5033894;28;20103;-59
2021/03/07 04:17:23;;;;;;;40.83;26.10;;;8.50;99.90;;;;;;5043454;28;20557;-59
2021/03/07 04:19:50;;;;;;;42.97;26.80;;;8.40;99.90;;;;;;5049600;28;20040;-60
2021/03/07 04:22:16;;;;;;;37.38;24.17;;;8.50;99.90;;;;;;5042617;28;20017;-60
2021/03/07 04:24:43;;;;;;;37.08;25.17;;;8.50;99.90;;;;;;5050178;28;20527;-59
2021/03/07 04:27:09;;;;;;;40.67;25.73;;;8.50;99.90;;;;;;5042333;28;20061;-60
2021/03/07 04:29:37;;;;;;;39.15;25.17;;;8.70;99.90;;;;;;5051051;28;20104;-60
2021/03/07 04:32:04;;;;;;;40.70;24.60;;;8.60;99.90;;;;;;5039300;28;20097;-60
2021/03/07 04:34:30;;;;;;;40.08;26.38;;;8.60;99.90;;;;;;5047918;28;20075;-60
2021/03/07 04:36:56;;;;;;;40.15;25.65;;;8.60;99.90;;;;;;5040426;28;20021;-60
2021/03/07 04:39:22;;;;;;;40.95;24.92;;;8.60;99.90;;;;;;5051422;28;20500;-60
2021/03/07 04:41:48;;;;;;;39.50;25.88;;;8.60;99.90;;;;;;5040568;28;20032;-60
2021/03/07 04:44:13;;;;;;;43.30;26.85;;;8.50;99.90;;;;;;5041002;28;20033;-59
2021/03/07 04:46:39;;;;;;;40.33;25.73;;;8.60;99.90;;;;;;5038665;28;20029;-59
2021/03/07 04:49:05;;;;;;;39.13;25.63;;;8.50;99.90;;;;;;5052048;28;20064;-61
2021/03/07 04:51:30;;;;;;;41.40;25.92;;;8.50;99.90;;;;;;5038743;28;20068;-60
2021/03/07 04:53:56;;;;;;;42.15;27.10;;;8.50;99.90;;;;;;5051871;28;20029;-60
2021/03/07 04:56:27;;;;;;;41.55;25.38;;;8.50;99.90;;;;;;5040233;28;20029;-59
2021/03/07 04:58:52;;;;;;;46.53;27.88;;;8.60;99.90;;;;;;5051670;28;20031;-60
2021/03/07 05:01:18;;;;;;;44.25;26.17;;;8.50;99.90;;;;;;5040677;28;20026;-60
2021/03/07 05:03:44;;;;;;;43.47;26.45;;;8.60;99.90;;;;;;5050438;28;20493;-62
2021/03/07 05:06:11;;;;;;;43.40;27.52;;;8.60;99.90;;;;;;5041190;28;20030;-60
2021/03/07 05:08:37;;;;;;;44.28;26.60;;;8.60;99.90;;;;;;5049501;28;20401;-61
2021/03/07 05:11:03;;;;;;;42.30;26.13;;;8.60;99.90;;;;;;5042340;28;20041;-60
2021/03/07 05:13:29;;;;;;;40.72;27.10;;;8.80;99.90;;;;;;5047893;28;20025;-60
2021/03/07 05:15:54;;;;;;;41.78;25.95;;;8.60;99.90;;;;;;5043908;28;20037;-60
2021/03/07 05:18:20;;;;;;;44.88;26.65;;;8.70;99.90;;;;;;5034695;28;20092;-60
2021/03/07 05:20:46;;;;;;;47.15;27.33;;;8.60;99.90;;;;;;5031852;28;20041;-62
2021/03/07 05:23:11;;;;;;;40.03;26.08;;;8.70;99.90;;;;;;5030399;28;20029;-63
2021/03/07 05:25:37;;;;;;;42.20;27.90;;;8.50;99.90;;;;;;5032668;28;20486;-60
2021/03/07 05:28:03;;;;;;;41.08;27.02;;;8.60;99.90;;;;;;5032038;28;20101;-62
2021/03/07 05:30:29;;;;;;;41.47;26.70;;;8.50;99.90;;;;;;5032295;28;20076;-60
2021/03/07 05:32:55;;;;;;;44.35;27.85;;;8.60;99.90;;;;;;5032223;28;20060;-60
2021/03/07 05:35:21;;;;;;;40.75;25.88;;;8.60;99.90;;;;;;5032596;28;20100;-59
2021/03/07 05:37:47;;;;;;;45.42;27.88;;;8.60;99.90;;;;;;5031195;28;20033;-60
2021/03/07 05:40:14;;;;;;;45.83;28.17;;;8.60;99.90;;;;;;5033628;28;20531;-60
2021/03/07 05:42:40;;;;;;;49.30;28.00;;;8.70;99.90;;;;;;5039676;28;20038;-61
2021/03/07 05:45:06;;;;;;;47.30;30.38;;;8.60;99.90;;;;;;5033296;28;20029;-60
2021/03/07 05:47:32;;;;;;;47.72;28.98;;;8.60;99.90;;;;;;5036962;28;20026;-60
2021/03/07 05:49:58;;;;;;;47.13;30.23;;;8.60;99.90;;;;;;5031652;28;20559;-62
2021/03/07 05:52:24;;;;;;;52.60;32.67;;;8.60;99.90;;;;;;5029541;28;20025;-59
2021/03/07 05:54:54;;;;;;;56.88;35.00;;;8.60;99.90;;;;;;5030231;28;20048;-59
2021/03/07 05:57:22;;;;;;;59.17;36.20;;;8.60;99.90;;;;;;5029788;28;20032;-60
2021/03/07 05:59:49;;;;;;;56.85;35.20;;;8.60;99.90;;;;;;5031617;28;20521;-62
2021/03/07 06:02:15;;;;;;;53.58;35.92;;;8.60;99.90;;;;;;5041395;28;20051;-60
2021/03/07 06:04:42;;;;;;;51.22;33.70;;;8.60;99.90;;;;;;5048655;28;20057;-60
2021/03/07 06:07:09;;;;;;;59.30;34.58;;;8.60;99.90;;;;;;5039707;28;20029;-59
2021/03/07 06:09:35;;;;;;;55.63;35.53;;;8.60;99.90;;;;;;5048985;28;20029;-61
2021/03/07 06:12:02;;;;;;;48.83;31.65;;;8.60;99.90;;;;;;5039454;28;20033;-59
2021/03/07 06:14:32;;;;;;;51.65;32.47;;;8.50;99.90;;;;;;5049370;28;20017;-60
2021/03/07 06:16:59;;;;;;;45.33;30.08;;;8.50;99.90;;;;;;5040744;28;20029;-62
2021/03/07 06:19:25;;;;;;;51.15;31.42;;;8.50;99.90;;;;;;5030197;28;20056;-62
2021/03/07 06:21:51;;;;;;;47.70;27.80;;;8.50;99.90;;;;;;5039611;28;20026;-59
2021/03/07 06:24:38;;;;;;;42.35;27.67;;;8.50;99.90;;;;;;5030523;28;20025;-61
2021/03/07 06:27:06;;;;;;;47.78;28.02;;;8.50;99.90;;;;;;5037450;28;20029;-60
2021/03/07 06:29:32;;;;;;;44.70;27.27;;;8.50;99.90;;;;;;5038186;28;20028;-60
2021/03/07 06:31:58;;;;;;;47.03;28.52;;;8.50;99.90;;;;;;5036161;28;20041;-60
2021/03/07 06:34:23;;;;;;;41.67;25.95;;;8.50;99.90;;;;;;5029270;28;20040;-60
2021/03/07 06:37:01;;;;;;;45.72;27.63;;;9.30;99.90;;;;;;5028684;28;20116;-60
2021/03/07 06:39:28;;;;;;;45.28;27.77;;;9.00;99.90;;;;;;5027288;28;20052;-60
2021/03/07 06:42:01;;;;;;;46.28;27.25;;;8.90;99.90;;;;;;5038513;28;20029;-61
2021/03/07 06:44:26;;;;;;;41.03;26.05;;;8.80;99.90;;;;;;5036914;28;20025;-61
2021/03/07 06:46:52;;;;;;;44.47;27.05;;;8.60;99.90;;;;;;5038293;28;20021;-61
2021/03/07 06:49:28;;;;;;;42.78;26.75;;;8.60;99.90;;;;;;5050080;28;20025;-61
2021/03/07 06:52:01;;;;;;;43.63;27.05;;;8.80;99.90;;;;;;5037398;28;20589;-60
2021/03/07 06:54:29;;;;;;;42.88;26.42;;;8.60;99.90;;;;;;5048883;28;20025;-62
2021/03/07 06:56:54;;;;;;;43.28;27.60;;;8.70;99.90;;;;;;5034812;28;20363;-60
2021/03/07 06:59:24;;;;;;;47.50;27.95;;;8.60;99.90;;;;;;5028947;28;20032;-60
2021/03/07 07:01:55;;;;;;;41.75;26.63;;;8.50;99.90;;;;;;5033547;28;20127;-60
2021/03/07 07:04:22;;;;;;;40.58;25.05;;;8.60;99.90;;;;;;5026703;28;20662;-60
2021/03/07 07:07:05;;;;;;;44.22;26.80;;;8.80;99.90;;;;;;5027497;28;20030;-63
2021/03/07 07:09:32;;;;;;;43.03;26.85;;;8.80;99.90;;;;;;5030640;28;20025;-60
2021/03/07 07:11:58;;;;;;;38.72;26.17;;;8.80;99.90;;;;;;5033644;28;20646;-60
2021/03/07 07:14:40;;;;;;;40.53;26.25;;;8.80;99.90;;;;;;5028372;28;20022;-60
2021/03/07 07:17:08;;;;;;;39.10;26.05;;;8.70;99.90;;;;;;5030559;28;20528;-62
2021/03/07 07:19:34;;;;;;;44.83;26.40;;;8.80;99.90;;;;;;5029540;28;20033;-60
2021/03/07 07:22:00;;;;;;;46.65;25.33;;;8.90;99.90;;;;;;5032690;28;20093;-63
2021/03/07 07:24:26;;;;;;;37.30;25.45;;;8.90;99.90;;;;;;5029626;28;20080;-62
2021/03/07 07:26:52;;;;;;;39.88;25.08;;;8.80;99.90;;;;;;5029599;28;20034;-60
2021/03/07 07:29:17;;;;;;;37.60;25.23;;;8.80;99.90;;;;;;5028174;28;20042;-61
2021/03/07 07:32:14;;;;;;;42.63;26.08;;;8.90;99.90;;;;;;5034843;28;20065;-60
2021/03/07 07:34:49;;;;;;;41.05;25.67;;;8.80;99.90;;;;;;5015891;28;20044;-63
2021/03/07 07:37:24;;;;;;;36.42;26.27;;;9.00;99.90;;;;;;5042505;28;20028;-61
2021/03/07 07:39:52;;;;;;;43.63;25.75;;;8.90;99.90;;;;;;5050505;28;20519;-61
2021/03/07 07:42:25;;;;;;;37.50;24.55;;;9.00;99.90;;;;;;5034844;28;20548;-60
2021/03/07 07:44:52;;;;;;;43.65;26.75;;;8.80;99.90;;;;;;5033617;28;20040;-61
2021/03/07 07:47:18;;;;;;;41.88;26.15;;;8.80;99.90;;;;;;5039109;28;20028;-61
2021/03/07 07:49:47;;;;;;;43.33;25.85;;;8.90;99.90;;;;;;5031362;28;20033;-60
2021/03/07 07:52:36;;;;;;;39.83;26.08;;;8.90;99.90;;;;;;5038498;28;20025;-61
2021/03/07 07:55:05;;;;;;;47.90;27.27;;;8.80;99.90;;;;;;5034513;28;20026;-61
2021/03/07 07:57:38;;;;;;;45.13;26.58;;;8.80;99.90;;;;;;5040516;28;20026;-60
2021/03/07 08:00:10;;;;;;;43.70;27.15;;;9.00;99.90;;;;;;5034832;28;20075;-60
2021/03/07 08:02:55;;;;;;;43.80;28.35;;;9.00;99.90;;;;;;5043970;28;20025;-61
2021/03/07 08:05:21;;;;;;;42.83;27.90;;;8.90;99.90;;;;;;5037876;28;20041;-61
2021/03/07 08:08:07;;;;;;;42.88;27.65;;;9.10;99.90;;;;;;5040883;28;20562;-61
2021/03/07 08:10:39;;;;;;;47.28;26.17;;;9.10;99.90;;;;;;5032870;28;20033;-60
2021/03/07 08:13:27;;;;;;;43.17;27.73;;;9.20;99.90;;;;;;5028933;28;20098;-60
2021/03/07 08:16:05;;;;;;;42.13;27.63;;;9.00;99.90;;;;;;5033049;28;20057;-61
2021/03/07 08:18:55;;;;;;;40.88;27.48;;;9.00;99.90;;;;;;5029862;28;20460;-60
2021/03/07 08:21:23;;;;;;;42.70;26.70;;;9.20;99.90;;;;;;5032584;28;20026;-60
2021/03/07 08:24:00;;;;;;;41.05;27.20;;;9.20;99.90;;;;;;5050566;28;20099;-60
2021/03/07 08:26:45;;;;;;;43.67;26.35;;;9.20;99.90;;;;;;5040429;28;20030;-60
2021/03/07 08:29:43;;;;;;;37.67;25.52;;;9.30;99.90;;;;;;5030459;28;20025;-60
2021/03/07 08:32:28;;;;;;;40.72;26.30;;;9.20;99.90;;;;;;5039899;28;20059;-60
2021/03/07 08:34:55;;;;;;;42.95;26.73;;;9.30;99.90;;;;;;5045333;28;20020;-60
2021/03/07 08:37:21;;;;;;;43.80;26.10;;;9.40;99.90;;;;;;5035752;28;20417;-60
2021/03/07 08:39:47;;;;;;;43.45;28.25;;;9.50;99.90;;;;;;5032810;28;20032;-60
2021/03/07 08:42:27;;;;;;;45.55;27.52;;;9.30;99.90;;;;;;5041596;28;20017;-60
2021/03/07 08:45:15;;;;;;;45.78;28.95;;;9.40;99.90;;;;;;5035461;28;20029;-60
2021/03/07 08:47:56;;;;;;;39.25;27.15;;;9.40;99.90;;;;;;5037714;28;20472;-60
2021/03/07 08:50:22;;;;;;;44.47;27.75;;;9.50;99.90;;;;;;5034866;28;20025;-60
2021/03/07 08:52:49;;;;;;;48.60;27.25;;;9.50;99.90;;;;;;5042799;28;20032;-61
2021/03/07 08:55:16;;;;;;;43.50;27.13;;;9.20;99.90;;;;;;5047937;28;20048;-61
2021/03/07 08:57:50;;;;;;;46.85;28.15;;;9.40;99.90;;;;;;5037054;28;20029;-61
2021/03/07 09:00:19;;;;;;;41.42;27.27;;;9.50;99.90;;;;;;5034759;28;21069;-61
2021/03/07 09:02:45;;;;;;;44.75;26.88;;;9.50;99.90;;;;;;5042754;28;20017;-60
2021/03/07 09:05:30;;;;;;;43.53;27.08;;;9.60;99.90;;;;;;5045731;28;20436;-60
2021/03/07 09:08:02;;;;;;;43.50;28.50;;;9.50;99.90;;;;;;5024456;28;20088;-60
2021/03/07 09:10:33;;;;;;;47.88;29.10;;;9.60;99.90;;;;;;5036273;28;20064;-61
2021/03/07 09:13:29;;;;;;;40.58;27.80;;;9.40;99.90;;;;;;5029798;28;20030;-61
2021/03/07 09:16:04;;;;;;;43.70;26.80;;;9.70;99.90;;;;;;5031847;28;20502;-61
2021/03/07 09:18:35;;;;;;;46.70;28.08;;;9.60;99.90;;;;;;5029965;28;20033;-61
2021/03/07 09:21:03;;;;;;;42.80;27.38;;;9.70;99.90;;;;;;5034173;28;20061;-61
2021/03/07 09:23:41;;;;;;;43.17;26.65;;;9.70;99.90;;;;;;5035089;28;20026;-61
2021/03/07 09:26:12;;;;;;;52.60;27.88;;;9.90;99.90;;;;;;5035197;28;20033;-61
2021/03/07 09:28:54;;;;;;;43.03;27.23;;;9.90;99.90;;;;;;5048090;28;20510;-61
2021/03/07 09:31:24;;;;;;;42.38;27.38;;;10.00;99.90;;;;;;5039806;28;20476;-60
2021/03/07 09:33:52;;;;;;;42.25;26.90;;;9.90;99.90;;;;;;5049854;28;20079;-61
2021/03/07 09:36:23;;;;;;;47.30;29.92;;;9.90;99.90;;;;;;5031947;28;20023;-61
2021/03/07 09:38:51;;;;;;;46.40;29.05;;;9.90;99.90;;;;;;5031789;28;20025;-61
2021/03/07 09:41:36;;;;;;;41.40;26.70;;;10.00;99.90;;;;;;5035528;28;20052;-61
2021/03/07 09:44:16;;;;;;;42.42;26.95;;;10.00;99.90;;;;;;5019593;28;20026;-61
2021/03/07 09:46:43;;;;;;;43.38;26.75;;;10.00;99.90;;;;;;5035229;28;20493;-61
2021/03/07 09:49:10;;;;;;;42.95;28.67;;;10.00;99.90;;;;;;5049841;28;20017;-61
2021/03/07 09:51:41;;;;;;;49.17;29.58;;;10.20;99.90;;;;;;5030193;28;20038;-61
2021/03/07 09:54:15;;;;;;;42.33;27.98;;;10.10;99.90;;;;;;5029993;28;20049;-61
2021/03/07 09:56:41;;;;;;;44.90;28.70;;;10.30;99.90;;;;;;5035326;28;20409;-61
2021/03/07 09:59:10;;;;;;;45.38;29.20;;;10.00;99.90;;;;;;5036454;28;20026;-62
2021/03/07 10:01:50;;;;;;;42.53;28.90;;;10.00;99.90;;;;;;5028309;28;20025;-61
2021/03/07 10:04:24;;;;;;;51.05;28.55;;;10.10;99.90;;;;;;5030017;28;20530;-61
2021/03/07 10:06:50;;;;;;;43.47;26.77;;;10.30;99.90;;;;;;5031275;28;20524;-61
2021/03/07 10:09:15;;;;;;;45.92;28.67;;;10.40;99.90;;;;;;5028478;28;20038;-61
2021/03/07 10:12:00;;;;;;;43.80;28.25;;;10.10;99.90;;;;;;5031622;28;20504;-61
2021/03/07 10:14:29;;;;;;;48.53;27.98;;;10.30;99.90;;;;;;5028682;28;20525;-61
2021/03/07 10:16:57;;;;;;;42.55;28.58;;;10.40;99.90;;;;;;5039743;28;20486;-61
2021/03/07 10:19:23;;;;;;;44.22;28.27;;;10.30;99.90;;;;;;5026422;28;20520;-61
2021/03/07 10:21:55;;;;;;;41.85;27.52;;;10.50;99.90;;;;;;5028567;28;20033;-61
2021/03/07 10:24:21;;;;;;;47.58;29.05;;;10.50;99.90;;;;;;5029606;28;20017;-61
2021/03/07 10:26:50;;;;;;;42.72;27.85;;;10.60;99.90;;;;;;5035053;28;20041;-61
2021/03/07 10:29:33;;;;;;;44.13;28.00;;;10.60;99.90;;;;;;5029453;28;20021;-61
2021/03/07 10:32:20;;;;;;;53.45;30.17;;;10.50;99.90;;;;;;5030640;28;20042;-61
2021/03/07 10:34:53;;;;;;;52.10;29.20;;;10.60;99.90;;;;;;5030473;28;20048;-62
2021/03/07 10:37:42;;;;;;;52.47;30.00;;;10.80;99.90;;;;;;5032785;28;20025;-62
2021/03/07 10:40:09;;;;;;;44.15;29.38;;;10.70;99.90;;;;;;5031896;28;20112;-61
2021/03/07 10:42:37;;;;;;;47.92;30.38;;;10.80;99.90;;;;;;5038211;28;20040;-61
2021/03/07 10:45:15;;;;;;;47.95;29.23;;;10.80;99.90;;;;;;5032973;28;20021;-61
2021/03/07 10:47:40;;;;;;;44.03;29.92;;;10.90;99.90;;;;;;5040796;28;20517;-61
2021/03/07 10:50:07;;;;;;;42.10;27.52;;;10.90;99.90;;;;;;5045387;28;20091;-61
2021/03/07 10:52:32;;;;;;;43.88;29.23;;;11.00;99.90;;;;;;5039527;28;20032;-62
2021/03/07 10:54:58;;;;;;;41.55;29.15;;;10.80;99.90;;;;;;5045867;28;20066;-61
2021/03/07 10:57:24;;;;;;;46.22;29.17;;;11.00;99.90;;;;;;5033817;28;20494;-61
2021/03/07 10:59:52;;;;;;;44.15;29.42;;;11.00;99.90;;;;;;5029655;28;20370;-60
2021/03/07 11:02:19;;;;;;;43.85;29.23;;;11.00;99.90;;;;;;5039238;28;20389;-61
2021/03/07 11:04:46;;;;;;;47.67;30.00;;;11.20;99.90;;;;;;5039258;28;20049;-63
2021/03/07 11:07:12;;;;;;;41.17;27.65;;;11.30;99.90;;;;;;5037704;28;20029;-61
2021/03/07 11:09:39;;;;;;;41.80;28.67;;;11.30;99.90;;;;;;5047725;28;20025;-62
2021/03/07 11:12:06;;;;;;;44.60;30.20;;;11.10;99.90;;;;;;5037998;28;20043;-63
2021/03/07 11:14:32;;;;;;;47.78;29.23;;;11.20;99.90;;;;;;5047953;28;20017;-62
2021/03/07 11:16:58;;;;;;;43.17;28.85;;;11.30;99.90;;;;;;5037658;28;20033;-62
2021/03/07 11:19:23;;;;;;;40.70;28.60;;;11.50;99.90;;;;;;5029402;28;20056;-63
2021/03/07 11:21:49;;;;;;;46.08;30.20;;;11.30;99.90;;;;;;5033912;28;20242;-63
2021/03/07 11:24:15;;;;;;;49.03;30.48;;;11.50;99.90;;;;;;5047457;28;20032;-63
2021/03/07 11:26:41;;;;;;;50.92;28.60;;;11.60;99.90;;;;;;5035558;28;20057;-62
2021/03/07 11:29:07;;;;;;;38.92;26.42;;;11.40;99.90;;;;;;5049035;28;20036;-62
2021/03/07 11:31:33;;;;;;;44.60;29.05;;;11.40;99.90;;;;;;5036766;28;20033;-62
2021/03/07 11:33:59;;;;;;;43.30;29.65;;;11.50;99.90;;;;;;5036275;28;20025;-62
2021/03/07 11:36:24;;;;;;;45.17;27.98;;;11.60;99.90;;;;;;5029320;28;20041;-62
2021/03/07 11:38:50;;;;;;;45.85;27.73;;;11.60;99.90;;;;;;5047094;28;20032;-62
2021/03/07 11:41:16;;;;;;;36.85;24.90;;;11.60;99.90;;;;;;5030724;28;20029;-63
2021/03/07 11:43:41;;;;;;;41.00;24.65;;;11.60;99.90;;;;;;5030174;28;20521;-62
2021/03/07 11:46:07;;;;;;;38.70;25.25;;;11.50;99.90;;;;;;5033539;28;20041;-63
2021/03/07 11:48:33;;;;;;;33.05;24.25;;;11.50;99.90;;;;;;5044994;28;20025;-63
2021/03/07 11:50:58;;;;;;;37.33;24.67;;;11.50;99.90;;;;;;5040563;28;20136;-63
2021/03/07 11:53:24;;;;;;;31.65;24.83;;;11.30;99.90;;;;;;5043813;28;20033;-62
2021/03/07 11:55:49;;;;;;;35.67;24.15;;;11.40;99.90;;;;;;5042585;28;20107;-62
2021/03/07 11:58:15;;;;;;;35.88;22.98;;;11.40;99.90;;;;;;5038266;28;20025;-62
2021/03/07 12:00:41;;;;;;;41.08;24.10;;;11.50;99.90;;;;;;5033550;28;20029;-63
2021/03/07 12:03:06;;;;;;;40.38;25.40;;;11.40;99.90;;;;;;5041425;28;20021;-63
2021/03/07 12:05:32;;;;;;;35.97;24.13;;;11.20;99.90;;;;;;5044290;28;20040;-62
2021/03/07 12:07:58;;;;;;;34.92;24.15;;;11.20;99.90;;;;;;5040335;28;20505;-63
2021/03/07 12:10:25;;;;;;;32.83;21.92;;;11.30;99.90;;;;;;5042614;28;20025;-63
2021/03/07 12:12:51;;;;;;;38.95;23.52;;;11.30;99.90;;;;;;5037528;28;20079;-63
2021/03/07 12:15:17;;;;;;;41.65;23.00;;;11.30;99.90;;;;;;5031649;28;20017;-63
2021/03/07 12:17:42;;;;;;;34.38;20.38;;;11.30;99.90;;;;;;5027253;28;20033;-63
2021/03/07 12:20:09;;;;;;;36.55;21.83;;;11.40;99.90;;;;;;5031692;28;20555;-64
2021/03/07 12:22:35;;;;;;;37.15;21.02;;;11.40;99.90;;;;;;5042387;28;20029;-63
2021/03/07 12:25:02;;;;;;;39.15;22.38;;;11.30;99.90;;;;;;5048860;28;20397;-63
2021/03/07 12:27:28;;;;;;;35.13;21.77;;;11.40;99.90;;;;;;5042646;28;20021;-63
2021/03/07 12:29:53;;;;;;;38.00;21.52;;;11.20;99.90;;;;;;5032762;28;20032;-62
2021/03/07 12:32:19;;;;;;;31.98;20.92;;;11.30;99.90;;;;;;5034308;28;20041;-62
2021/03/07 12:34:45;;;;;;;36.30;20.92;;;11.40;99.90;;;;;;5032277;28;20026;-63
2021/03/07 12:37:10;;;;;;;35.95;20.90;;;11.40;99.90;;;;;;5030334;28;20033;-62
2021/03/07 12:39:36;;;;;;;32.00;21.48;;;11.40;99.90;;;;;;5041660;28;20060;-62
2021/03/07 12:42:02;;;;;;;36.50;22.23;;;11.30;99.90;;;;;;5039547;28;20039;-62